createdAt,value
2022-10-03T00:02:00.825Z,72.68
2022-10-03T00:07:50.668Z,72.67
2022-10-03T00:13:25.590Z,72.78
2022-10-03T00:18:59.267Z,72.19
2022-10-03T00:24:56.398Z,72.56
2022-10-03T00:30:24.748Z,72.52
2022-10-03T00:35:51.556Z,72.33
2022-10-03T00:41:28.188Z,72.31
2022-10-03T00:47:19.296Z,72.10
2022-10-03T00:53:06.322Z,72.04
2022-10-03T00:58:39.267Z,72.10
2022-10-03T01:04:23.281Z,72.27
2022-10-03T01:10:14.405Z,72.36
2022-10-03T01:15:52.311Z,72.43
2022-10-03T01:21:39.246Z,72.53
2022-10-03T01:27:05.098Z,72.60
2022-10-03T01:32:53.030Z,72.69
2022-10-03T01:38:27.669Z,72.88
2022-10-03T01:43:56.722Z,72.57
2022-10-03T01:49:18.065Z,72.46
2022-10-03T01:54:46.375Z,72.52
2022-10-03T02:00:18.120Z,72.89
2022-10-03T02:05:48.283Z,72.56
2022-10-03T02:11:22.485Z,72.64
2022-10-03T02:16:52.824Z,72.80
2022-10-03T02:22:28.557Z,72.84
2022-10-03T02:28:30.436Z,73.22
2022-10-03T02:34:33.363Z,72.95
2022-10-03T02:40:40.780Z,73.11
2022-10-03T02:46:07.683Z,72.91
2022-10-03T02:52:27.660Z,72.91
2022-10-03T02:58:11.761Z,73.03
2022-10-03T03:03:54.385Z,73.36
2022-10-03T03:09:34.504Z,73.07
2022-10-03T03:15:32.238Z,73.58
2022-10-03T03:21:05.664Z,73.80
2022-10-03T03:26:47.641Z,73.54
2022-10-03T03:32:25.026Z,73.63
2022-10-03T03:38:14.343Z,73.42
2022-10-03T03:43:55.574Z,73.19
2022-10-03T03:49:31.762Z,73.47
2022-10-03T03:55:05.599Z,73.52
2022-10-03T04:00:58.364Z,73.41
2022-10-03T04:06:36.535Z,73.57
2022-10-03T04:12:10.183Z,73.24
2022-10-03T04:18:03.659Z,73.38
2022-10-03T04:24:01.449Z,73.39
2022-10-03T04:29:25.274Z,73.26
2022-10-03T04:35:22.681Z,73.26
2022-10-03T04:40:49.077Z,73.62
2022-10-03T04:46:51.849Z,73.60
2022-10-03T04:52:15.530Z,73.54
2022-10-03T04:57:42.247Z,73.57
2022-10-03T05:03:33.875Z,73.60
2022-10-03T05:09:01.783Z,73.73
2022-10-03T05:14:44.580Z,73.53
2022-10-03T05:20:46.665Z,73.79
2022-10-03T05:26:43.092Z,73.53
2022-10-03T05:32:01.466Z,73.69
2022-10-03T05:37:40.455Z,73.46
2022-10-03T05:43:22.134Z,73.74
2022-10-03T05:49:09.529Z,73.63
2022-10-03T05:55:04.160Z,73.60
2022-10-03T06:00:36.880Z,73.98
2022-10-03T06:06:03.542Z,73.72
2022-10-03T06:11:53.828Z,73.59
2022-10-03T06:17:33.513Z,73.65
2022-10-03T06:23:14.539Z,74.16
2022-10-03T06:28:58.952Z,73.55
2022-10-03T06:34:33.591Z,73.70
2022-10-03T06:40:07.480Z,73.58
2022-10-03T06:46:05.805Z,73.20
2022-10-03T06:52:03.422Z,73.91
2022-10-03T06:57:27.025Z,73.41
2022-10-03T07:03:20.205Z,73.77
2022-10-03T07:09:25.201Z,73.61
2022-10-03T07:15:33.665Z,74.11
2022-10-03T07:22:00.127Z,73.43
2022-10-03T07:27:35.787Z,74.14
2022-10-03T07:33:05.686Z,74.28
2022-10-03T07:38:59.416Z,74.02
2022-10-03T07:44:59.416Z,73.79
2022-10-03T07:50:41.128Z,73.97
2022-10-03T07:56:17.669Z,74.14
2022-10-03T08:01:44.393Z,74.01
2022-10-03T08:07:29.009Z,74.12
2022-10-03T08:13:28.258Z,73.83
2022-10-03T08:19:21.553Z,73.95
2022-10-03T08:25:10.216Z,74.60
2022-10-03T08:31:09.988Z,74.28
2022-10-03T08:37:01.338Z,73.84
2022-10-03T08:42:41.684Z,73.78
2022-10-03T08:48:27.461Z,73.66
2022-10-03T08:53:48.298Z,73.53
2022-10-03T08:59:34.306Z,73.68
2022-10-03T09:04:58.018Z,74.01
2022-10-03T09:10:50.701Z,73.50
2022-10-03T09:16:46.693Z,73.15
2022-10-03T09:22:32.631Z,73.25
2022-10-03T09:28:30.911Z,72.92
2022-10-03T09:34:02.137Z,72.72
2022-10-03T09:39:44.942Z,72.79
2022-10-03T09:45:43.991Z,72.61
2022-10-03T09:51:57.391Z,72.26
2022-10-03T09:57:40.297Z,72.52
2022-10-03T10:03:43.796Z,73.03
2022-10-03T10:09:26.403Z,72.65
2022-10-03T10:15:16.386Z,72.54
2022-10-03T10:20:45.936Z,73.12
2022-10-03T10:27:04.393Z,72.78
2022-10-03T10:32:34.536Z,72.74
2022-10-03T10:38:15.393Z,72.47
2022-10-03T10:43:51.230Z,72.40
2022-10-03T10:49:33.832Z,73.13
2022-10-03T10:55:32.565Z,73.13
2022-10-03T11:01:28.865Z,72.03
2022-10-03T11:07:04.966Z,71.51
2022-10-03T11:13:01.399Z,71.21
2022-10-03T11:18:46.968Z,71.03
2022-10-03T11:24:23.159Z,71.41
2022-10-03T11:30:08.618Z,71.28
2022-10-03T11:35:58.215Z,71.83
2022-10-03T11:41:37.993Z,71.53
2022-10-03T11:47:21.263Z,70.76
2022-10-03T11:52:51.175Z,69.72
2022-10-03T11:58:27.473Z,69.99
2022-10-03T12:03:58.959Z,69.60
2022-10-03T12:09:25.436Z,69.94
2022-10-03T12:14:51.187Z,70.92
2022-10-03T12:20:22.970Z,70.85
2022-10-03T12:25:46.113Z,71.22
2022-10-03T12:31:19.258Z,71.15
2022-10-03T12:37:00.510Z,71.25
2022-10-03T12:42:33.232Z,70.94
2022-10-03T12:48:07.581Z,70.51
2022-10-03T12:53:49.318Z,70.03
2022-10-03T12:59:28.140Z,69.99
2022-10-03T13:05:10.601Z,69.25
2022-10-03T13:10:55.802Z,69.01
2022-10-03T13:16:32.446Z,68.69
2022-10-03T13:22:07.199Z,67.79
2022-10-03T13:27:36.044Z,67.87
2022-10-03T13:33:01.884Z,67.47
2022-10-03T13:38:31.829Z,67.45
2022-10-03T13:44:06.140Z,67.64
2022-10-03T13:49:51.592Z,67.86
2022-10-03T13:55:30.414Z,67.16
2022-10-03T14:01:13.490Z,67.30
2022-10-03T14:06:52.496Z,67.61
2022-10-03T14:12:56.060Z,67.44
2022-10-03T14:18:25.615Z,67.19
2022-10-03T14:23:58.169Z,66.64
2022-10-03T14:29:32.867Z,66.32
2022-10-03T14:35:24.776Z,66.49
2022-10-03T14:40:50.990Z,66.67
2022-10-03T14:46:14.237Z,66.82
2022-10-03T14:51:41.726Z,66.66
2022-10-03T14:57:18.618Z,66.82
2022-10-03T15:02:47.083Z,66.98
2022-10-03T15:08:16.209Z,66.87
2022-10-03T15:13:46.736Z,67.26
2022-10-03T15:19:29.087Z,67.39
2022-10-03T15:24:52.810Z,66.94
2022-10-03T15:30:30.712Z,67.32
2022-10-03T15:35:59.282Z,66.93
2022-10-03T15:41:38.965Z,66.79
2022-10-03T15:47:06.500Z,66.57
2022-10-03T15:52:42.795Z,66.46
2022-10-03T15:58:15.390Z,66.71
2022-10-03T16:03:56.581Z,66.67
2022-10-03T16:09:31.486Z,67.02
2022-10-03T16:15:16.997Z,66.59
2022-10-03T16:20:43.226Z,66.78
2022-10-03T16:26:12.947Z,66.91
2022-10-03T16:31:41.276Z,67.17
2022-10-03T16:37:06.953Z,67.26
2022-10-03T16:42:39.794Z,67.03
2022-10-03T16:48:29.007Z,67.15
2022-10-03T16:53:53.255Z,66.79
2022-10-03T16:59:19.608Z,67.10
2022-10-03T17:04:44.492Z,67.29
2022-10-03T17:10:17.650Z,67.14
2022-10-03T17:15:48.999Z,67.15
2022-10-03T17:21:26.569Z,67.28
2022-10-03T17:26:52.714Z,67.33
2022-10-03T17:32:53.353Z,67.18
2022-10-03T17:38:48.302Z,67.24
2022-10-03T17:44:14.645Z,67.43
2022-10-03T17:50:00.293Z,68.37
2022-10-03T17:55:30.198Z,67.60
2022-10-03T18:01:02.183Z,67.70
2022-10-03T18:06:29.049Z,67.42
2022-10-03T18:11:51.518Z,67.63
2022-10-03T18:17:34.014Z,67.32
2022-10-03T18:23:02.859Z,67.45
2022-10-03T18:28:44.595Z,67.51
2022-10-03T18:34:15.881Z,67.41
2022-10-03T18:39:38.379Z,67.76
2022-10-03T18:45:00.958Z,67.49
2022-10-03T18:50:27.698Z,67.66
2022-10-03T18:55:55.652Z,67.82
2022-10-03T19:01:19.332Z,67.81
2022-10-03T19:06:51.692Z,67.58
2022-10-03T19:12:23.050Z,67.56
2022-10-03T19:18:20.964Z,67.62
2022-10-03T19:23:47.049Z,67.92
2022-10-03T19:29:17.958Z,68.15
2022-10-03T19:34:40.616Z,67.74
2022-10-03T19:40:01.823Z,67.78
2022-10-03T19:45:23.500Z,68.20
2022-10-03T19:50:44.509Z,68.14
2022-10-03T19:56:20.483Z,68.07
2022-10-03T20:01:46.904Z,67.97
2022-10-03T20:07:16.763Z,67.97
2022-10-03T20:12:45.078Z,68.17
2022-10-03T20:18:07.170Z,68.36
2022-10-03T20:23:31.381Z,68.56
2022-10-03T20:29:06.098Z,68.41
2022-10-03T20:34:27.297Z,68.23
2022-10-03T20:39:49.942Z,68.24
2022-10-03T20:45:27.708Z,68.47
2022-10-03T20:50:49.140Z,68.85
2022-10-03T20:56:13.166Z,69.16
2022-10-03T21:01:37.881Z,69.62
2022-10-03T21:07:10.761Z,69.67
2022-10-03T21:12:39.139Z,69.43
2022-10-03T21:18:01.688Z,69.35
2022-10-03T21:23:25.080Z,69.63
2022-10-03T21:28:46.175Z,69.69
2022-10-03T21:34:20.975Z,69.94
2022-10-03T21:40:01.815Z,70.02
2022-10-03T21:45:52.287Z,70.36
2022-10-03T21:51:28.918Z,70.15
2022-10-03T21:57:31.961Z,70.48
2022-10-03T22:03:20.018Z,70.80
2022-10-03T22:08:44.626Z,70.74
2022-10-03T22:14:14.400Z,71.08
2022-10-03T22:19:44.435Z,70.67
2022-10-03T22:25:29.622Z,70.95
2022-10-03T22:30:57.606Z,70.82
2022-10-03T22:36:19.671Z,71.06
2022-10-03T22:41:43.677Z,71.10
2022-10-03T22:47:16.308Z,70.75
2022-10-03T22:52:46.981Z,70.35
2022-10-03T22:58:08.602Z,70.44
2022-10-03T23:03:34.016Z,70.54
2022-10-03T23:09:18.044Z,70.71
2022-10-03T23:14:46.533Z,70.37
2022-10-03T23:20:35.174Z,70.65
2022-10-03T23:26:04.976Z,70.41
2022-10-03T23:31:55.201Z,70.74
2022-10-03T23:37:15.819Z,70.75
2022-10-03T23:42:44.483Z,70.43
2022-10-03T23:48:10.265Z,70.49
2022-10-03T23:53:44.921Z,70.35
2022-10-03T23:59:35.832Z,70.67
